sensor_id;sensor_type;location;lat;lon;timestamp;P1;durP1;ratioP1;P2;durP2;ratioP2
24008;SDS011;12217;50.792;4.372;2023-08-01T00:01:27;4.25;;;2.58;;
24008;SDS011;12217;50.792;4.372;2023-08-01T00:03:53;3.67;;;2.65;;
24008;SDS011;12217;50.792;4.372;2023-08-01T00:06:19;5.30;;;2.97;;
24008;SDS011;12217;50.792;4.372;2023-08-01T00:08:45;5.53;;;3.30;;
24008;SDS011;12217;50.792;4.372;2023-08-01T00:11:11;5.70;;;3.00;;
24008;SDS011;12217;50.792;4.372;2023-08-01T00:13:39;6.80;;;3.05;;
24008;SDS011;12217;50.792;4.372;2023-08-01T00:16:04;4.25;;;3.03;;
24008;SDS011;12217;50.792;4.372;2023-08-01T00:18:30;4.15;;;3.10;;
24008;SDS011;12217;50.792;4.372;2023-08-01T00:20:56;5.18;;;3.60;;
24008;SDS011;12217;50.792;4.372;2023-08-01T00:23:21;6.95;;;3.50;;
24008;SDS011;12217;50.792;4.372;2023-08-01T00:25:47;5.32;;;3.42;;
24008;SDS011;12217;50.792;4.372;2023-08-01T00:28:21;6.80;;;3.47;;
24008;SDS011;12217;50.792;4.372;2023-08-01T00:30:47;4.88;;;3.63;;
24008;SDS011;12217;50.792;4.372;2023-08-01T00:33:13;6.88;;;3.22;;
24008;SDS011;12217;50.792;4.372;2023-08-01T00:35:39;4.20;;;3.00;;
24008;SDS011;12217;50.792;4.372;2023-08-01T00:38:05;5.68;;;3.30;;
24008;SDS011;12217;50.792;4.372;2023-08-01T00:40:32;4.22;;;3.00;;
24008;SDS011;12217;50.792;4.372;2023-08-01T00:42:59;5.75;;;3.28;;
24008;SDS011;12217;50.792;4.372;2023-08-01T00:45:25;7.50;;;3.28;;
24008;SDS011;12217;50.792;4.372;2023-08-01T00:47:52;3.83;;;2.90;;
24008;SDS011;12217;50.792;4.372;2023-08-01T00:50:19;4.80;;;2.83;;
24008;SDS011;12217;50.792;4.372;2023-08-01T00:52:46;6.65;;;3.10;;
24008;SDS011;12217;50.792;4.372;2023-08-01T00:55:12;5.35;;;3.55;;
24008;SDS011;12217;50.792;4.372;2023-08-01T00:57:38;6.07;;;3.13;;
24008;SDS011;12217;50.792;4.372;2023-08-01T01:00:04;5.30;;;3.22;;
24008;SDS011;12217;50.792;4.372;2023-08-01T01:02:30;5.75;;;3.40;;
24008;SDS011;12217;50.792;4.372;2023-08-01T01:04:55;7.25;;;3.47;;
24008;SDS011;12217;50.792;4.372;2023-08-01T01:07:21;4.18;;;3.30;;
24008;SDS011;12217;50.792;4.372;2023-08-01T01:09:48;6.32;;;3.65;;
24008;SDS011;12217;50.792;4.372;2023-08-01T01:12:15;4.50;;;3.83;;
24008;SDS011;12217;50.792;4.372;2023-08-01T01:14:41;5.43;;;3.67;;
24008;SDS011;12217;50.792;4.372;2023-08-01T01:17:06;6.95;;;3.58;;
24008;SDS011;12217;50.792;4.372;2023-08-01T01:19:32;5.40;;;3.80;;
24008;SDS011;12217;50.792;4.372;2023-08-01T01:21:58;9.25;;;4.13;;
24008;SDS011;12217;50.792;4.372;2023-08-01T01:24:23;6.65;;;3.90;;
24008;SDS011;12217;50.792;4.372;2023-08-01T01:26:50;7.47;;;4.13;;
24008;SDS011;12217;50.792;4.372;2023-08-01T01:29:18;5.93;;;3.80;;
24008;SDS011;12217;50.792;4.372;2023-08-01T01:31:44;7.75;;;4.30;;
24008;SDS011;12217;50.792;4.372;2023-08-01T01:34:10;7.55;;;4.05;;
24008;SDS011;12217;50.792;4.372;2023-08-01T01:36:36;6.80;;;3.97;;
24008;SDS011;12217;50.792;4.372;2023-08-01T01:39:02;7.75;;;4.20;;
24008;SDS011;12217;50.792;4.372;2023-08-01T01:41:28;7.65;;;4.70;;
24008;SDS011;12217;50.792;4.372;2023-08-01T01:43:53;7.55;;;4.38;;
24008;SDS011;12217;50.792;4.372;2023-08-01T01:46:19;10.10;;;4.75;;
24008;SDS011;12217;50.792;4.372;2023-08-01T01:48:44;7.32;;;4.30;;
24008;SDS011;12217;50.792;4.372;2023-08-01T01:51:10;11.65;;;4.75;;
24008;SDS011;12217;50.792;4.372;2023-08-01T01:53:35;9.52;;;4.70;;
24008;SDS011;12217;50.792;4.372;2023-08-01T01:56:01;8.25;;;3.97;;
24008;SDS011;12217;50.792;4.372;2023-08-01T01:58:27;5.57;;;4.22;;
24008;SDS011;12217;50.792;4.372;2023-08-01T02:00:52;6.75;;;4.78;;
24008;SDS011;12217;50.792;4.372;2023-08-01T02:03:18;6.38;;;4.30;;
24008;SDS011;12217;50.792;4.372;2023-08-01T02:05:44;7.80;;;4.80;;
24008;SDS011;12217;50.792;4.372;2023-08-01T02:08:10;8.18;;;4.75;;
24008;SDS011;12217;50.792;4.372;2023-08-01T02:10:35;8.15;;;4.70;;
24008;SDS011;12217;50.792;4.372;2023-08-01T02:13:01;6.68;;;5.00;;
24008;SDS011;12217;50.792;4.372;2023-08-01T02:15:26;11.40;;;4.93;;
24008;SDS011;12217;50.792;4.372;2023-08-01T02:17:52;9.10;;;4.78;;
24008;SDS011;12217;50.792;4.372;2023-08-01T02:20:18;12.13;;;5.28;;
24008;SDS011;12217;50.792;4.372;2023-08-01T02:22:43;8.82;;;5.55;;
24008;SDS011;12217;50.792;4.372;2023-08-01T02:25:09;16.92;;;5.68;;
24008;SDS011;12217;50.792;4.372;2023-08-01T02:27:34;8.38;;;5.50;;
24008;SDS011;12217;50.792;4.372;2023-08-01T02:30:00;11.90;;;6.68;;
24008;SDS011;12217;50.792;4.372;2023-08-01T02:32:26;11.43;;;6.50;;
24008;SDS011;12217;50.792;4.372;2023-08-01T02:34:51;12.10;;;6.80;;
24008;SDS011;12217;50.792;4.372;2023-08-01T02:37:17;14.25;;;7.07;;
24008;SDS011;12217;50.792;4.372;2023-08-01T02:39:42;11.93;;;6.57;;
24008;SDS011;12217;50.792;4.372;2023-08-01T02:42:08;12.18;;;6.72;;
24008;SDS011;12217;50.792;4.372;2023-08-01T02:44:33;11.30;;;7.03;;
24008;SDS011;12217;50.792;4.372;2023-08-01T02:46:59;16.83;;;6.30;;
24008;SDS011;12217;50.792;4.372;2023-08-01T02:49:25;11.30;;;6.80;;
24008;SDS011;12217;50.792;4.372;2023-08-01T02:51:50;12.40;;;7.13;;
24008;SDS011;12217;50.792;4.372;2023-08-01T02:54:16;15.93;;;6.85;;
24008;SDS011;12217;50.792;4.372;2023-08-01T02:56:41;15.57;;;7.40;;
24008;SDS011;12217;50.792;4.372;2023-08-01T02:59:07;16.08;;;7.40;;
24008;SDS011;12217;50.792;4.372;2023-08-01T03:01:36;11.57;;;7.15;;
24008;SDS011;12217;50.792;4.372;2023-08-01T03:04:03;11.88;;;6.82;;
24008;SDS011;12217;50.792;4.372;2023-08-01T03:06:30;11.90;;;7.10;;
24008;SDS011;12217;50.792;4.372;2023-08-01T03:08:58;15.07;;;7.55;;
24008;SDS011;12217;50.792;4.372;2023-08-01T03:11:24;11.90;;;7.22;;
24008;SDS011;12217;50.792;4.372;2023-08-01T03:13:51;13.98;;;6.70;;
24008;SDS011;12217;50.792;4.372;2023-08-01T03:16:17;15.52;;;7.40;;
24008;SDS011;12217;50.792;4.372;2023-08-01T03:18:42;12.60;;;7.00;;
24008;SDS011;12217;50.792;4.372;2023-08-01T03:21:08;12.43;;;6.88;;
24008;SDS011;12217;50.792;4.372;2023-08-01T03:23:34;12.98;;;7.03;;
24008;SDS011;12217;50.792;4.372;2023-08-01T03:25:59;14.57;;;7.53;;
24008;SDS011;12217;50.792;4.372;2023-08-01T03:28:30;17.70;;;8.00;;
24008;SDS011;12217;50.792;4.372;2023-08-01T03:30:55;16.63;;;7.70;;
24008;SDS011;12217;50.792;4.372;2023-08-01T03:33:21;14.57;;;7.40;;
24008;SDS011;12217;50.792;4.372;2023-08-01T03:35:46;15.43;;;8.07;;
24008;SDS011;12217;50.792;4.372;2023-08-01T03:38:12;14.90;;;7.72;;
24008;SDS011;12217;50.792;4.372;2023-08-01T03:40:38;13.45;;;8.07;;
24008;SDS011;12217;50.792;4.372;2023-08-01T03:43:04;15.93;;;7.50;;
24008;SDS011;12217;50.792;4.372;2023-08-01T03:45:30;14.73;;;8.40;;
24008;SDS011;12217;50.792;4.372;2023-08-01T03:47:55;16.83;;;8.40;;
24008;SDS011;12217;50.792;4.372;2023-08-01T03:50:21;19.05;;;7.95;;
24008;SDS011;12217;50.792;4.372;2023-08-01T03:52:46;18.60;;;8.13;;
24008;SDS011;12217;50.792;4.372;2023-08-01T03:55:12;23.55;;;8.13;;
24008;SDS011;12217;50.792;4.372;2023-08-01T03:57:38;16.98;;;8.50;;
24008;SDS011;12217;50.792;4.372;2023-08-01T04:00:05;17.45;;;8.25;;
24008;SDS011;12217;50.792;4.372;2023-08-01T04:02:31;18.55;;;8.07;;
24008;SDS011;12217;50.792;4.372;2023-08-01T04:04:57;17.02;;;8.60;;
24008;SDS011;12217;50.792;4.372;2023-08-01T04:07:22;15.80;;;8.25;;
24008;SDS011;12217;50.792;4.372;2023-08-01T04:09:48;15.52;;;8.27;;
24008;SDS011;12217;50.792;4.372;2023-08-01T04:12:13;17.67;;;8.32;;
24008;SDS011;12217;50.792;4.372;2023-08-01T04:14:39;18.90;;;8.68;;
24008;SDS011;12217;50.792;4.372;2023-08-01T04:17:05;17.10;;;8.05;;
24008;SDS011;12217;50.792;4.372;2023-08-01T04:19:31;17.65;;;8.32;;
24008;SDS011;12217;50.792;4.372;2023-08-01T04:21:56;16.15;;;8.07;;
24008;SDS011;12217;50.792;4.372;2023-08-01T04:24:22;19.27;;;8.40;;
24008;SDS011;12217;50.792;4.372;2023-08-01T04:26:50;21.50;;;8.20;;
24008;SDS011;12217;50.792;4.372;2023-08-01T04:29:16;16.73;;;8.50;;
24008;SDS011;12217;50.792;4.372;2023-08-01T04:31:42;17.88;;;7.88;;
24008;SDS011;12217;50.792;4.372;2023-08-01T04:34:08;17.42;;;8.18;;
24008;SDS011;12217;50.792;4.372;2023-08-01T04:36:34;13.82;;;7.88;;
24008;SDS011;12217;50.792;4.372;2023-08-01T04:38:59;19.08;;;7.90;;
24008;SDS011;12217;50.792;4.372;2023-08-01T04:41:25;22.10;;;8.82;;
24008;SDS011;12217;50.792;4.372;2023-08-01T04:43:51;20.88;;;8.02;;
24008;SDS011;12217;50.792;4.372;2023-08-01T04:46:17;16.15;;;8.30;;
24008;SDS011;12217;50.792;4.372;2023-08-01T04:48:42;19.35;;;7.93;;
24008;SDS011;12217;50.792;4.372;2023-08-01T04:51:08;17.30;;;8.52;;
24008;SDS011;12217;50.792;4.372;2023-08-01T04:53:34;22.02;;;8.30;;
24008;SDS011;12217;50.792;4.372;2023-08-01T04:55:59;19.50;;;8.35;;
24008;SDS011;12217;50.792;4.372;2023-08-01T04:58:25;17.42;;;8.18;;
24008;SDS011;12217;50.792;4.372;2023-08-01T05:00:50;24.25;;;9.30;;
24008;SDS011;12217;50.792;4.372;2023-08-01T05:03:16;19.35;;;8.63;;
24008;SDS011;12217;50.792;4.372;2023-08-01T05:05:41;18.70;;;8.73;;
24008;SDS011;12217;50.792;4.372;2023-08-01T05:08:07;16.95;;;7.53;;
24008;SDS011;12217;50.792;4.372;2023-08-01T05:10:33;20.30;;;7.65;;
24008;SDS011;12217;50.792;4.372;2023-08-01T05:12:58;15.70;;;8.30;;
24008;SDS011;12217;50.792;4.372;2023-08-01T05:15:24;21.25;;;9.00;;
24008;SDS011;12217;50.792;4.372;2023-08-01T05:17:49;18.08;;;8.32;;
24008;SDS011;12217;50.792;4.372;2023-08-01T05:20:15;20.58;;;7.68;;
24008;SDS011;12217;50.792;4.372;2023-08-01T05:22:41;15.68;;;7.97;;
24008;SDS011;12217;50.792;4.372;2023-08-01T05:25:06;20.88;;;8.10;;
24008;SDS011;12217;50.792;4.372;2023-08-01T05:27:32;19.23;;;8.27;;
24008;SDS011;12217;50.792;4.372;2023-08-01T05:29:59;16.65;;;8.27;;
24008;SDS011;12217;50.792;4.372;2023-08-01T05:32:24;17.83;;;7.60;;
24008;SDS011;12217;50.792;4.372;2023-08-01T05:34:50;16.92;;;7.53;;
24008;SDS011;12217;50.792;4.372;2023-08-01T05:37:15;16.83;;;7.95;;
24008;SDS011;12217;50.792;4.372;2023-08-01T05:39:41;20.65;;;8.27;;
24008;SDS011;12217;50.792;4.372;2023-08-01T05:42:07;15.45;;;7.80;;
24008;SDS011;12217;50.792;4.372;2023-08-01T05:44:33;16.30;;;7.90;;
24008;SDS011;12217;50.792;4.372;2023-08-01T05:46:59;17.33;;;7.90;;
24008;SDS011;12217;50.792;4.372;2023-08-01T05:49:25;17.23;;;8.18;;
24008;SDS011;12217;50.792;4.372;2023-08-01T05:51:50;18.00;;;8.80;;
24008;SDS011;12217;50.792;4.372;2023-08-01T05:54:16;18.48;;;8.60;;
24008;SDS011;12217;50.792;4.372;2023-08-01T05:56:41;21.77;;;9.10;;
24008;SDS011;12217;50.792;4.372;2023-08-01T05:59:07;21.55;;;8.43;;
24008;SDS011;12217;50.792;4.372;2023-08-01T06:01:33;16.80;;;7.53;;
24008;SDS011;12217;50.792;4.372;2023-08-01T06:03:59;17.42;;;7.60;;
24008;SDS011;12217;50.792;4.372;2023-08-01T06:06:24;17.98;;;7.53;;
24008;SDS011;12217;50.792;4.372;2023-08-01T06:08:50;15.93;;;7.28;;
24008;SDS011;12217;50.792;4.372;2023-08-01T06:11:16;19.02;;;7.78;;
24008;SDS011;12217;50.792;4.372;2023-08-01T06:13:42;18.67;;;7.47;;
24008;SDS011;12217;50.792;4.372;2023-08-01T06:16:08;24.85;;;8.13;;
24008;SDS011;12217;50.792;4.372;2023-08-01T06:18:33;15.60;;;7.03;;
24008;SDS011;12217;50.792;4.372;2023-08-01T06:20:59;18.65;;;7.88;;
24008;SDS011;12217;50.792;4.372;2023-08-01T06:23:24;18.83;;;7.00;;
24008;SDS011;12217;50.792;4.372;2023-08-01T06:25:50;16.02;;;7.50;;
24008;SDS011;12217;50.792;4.372;2023-08-01T06:28:15;13.07;;;6.93;;
24008;SDS011;12217;50.792;4.372;2023-08-01T06:30:41;17.48;;;7.40;;
24008;SDS011;12217;50.792;4.372;2023-08-01T06:33:06;21.33;;;7.95;;
24008;SDS011;12217;50.792;4.372;2023-08-01T06:35:32;16.85;;;7.18;;
24008;SDS011;12217;50.792;4.372;2023-08-01T06:37:58;13.10;;;6.97;;
24008;SDS011;12217;50.792;4.372;2023-08-01T06:40:24;15.68;;;6.53;;
24008;SDS011;12217;50.792;4.372;2023-08-01T06:42:50;15.93;;;7.25;;
24008;SDS011;12217;50.792;4.372;2023-08-01T06:45:15;14.73;;;7.28;;
24008;SDS011;12217;50.792;4.372;2023-08-01T06:47:41;18.30;;;7.15;;
24008;SDS011;12217;50.792;4.372;2023-08-01T06:50:07;16.42;;;6.78;;
24008;SDS011;12217;50.792;4.372;2023-08-01T06:52:33;14.15;;;7.20;;
24008;SDS011;12217;50.792;4.372;2023-08-01T06:54:58;14.07;;;6.35;;
24008;SDS011;12217;50.792;4.372;2023-08-01T06:57:24;18.63;;;7.68;;
24008;SDS011;12217;50.792;4.372;2023-08-01T06:59:49;17.90;;;6.93;;
24008;SDS011;12217;50.792;4.372;2023-08-01T07:02:15;14.82;;;6.78;;
24008;SDS011;12217;50.792;4.372;2023-08-01T07:04:41;13.68;;;6.50;;
24008;SDS011;12217;50.792;4.372;2023-08-01T07:07:06;14.15;;;6.30;;
24008;SDS011;12217;50.792;4.372;2023-08-01T07:09:33;15.13;;;7.00;;
24008;SDS011;12217;50.792;4.372;2023-08-01T07:11:59;13.90;;;7.22;;
24008;SDS011;12217;50.792;4.372;2023-08-01T07:14:25;16.58;;;7.32;;
24008;SDS011;12217;50.792;4.372;2023-08-01T07:16:50;16.27;;;7.90;;
24008;SDS011;12217;50.792;4.372;2023-08-01T07:19:16;12.07;;;6.75;;
24008;SDS011;12217;50.792;4.372;2023-08-01T07:21:41;15.30;;;6.75;;
24008;SDS011;12217;50.792;4.372;2023-08-01T07:24:09;12.93;;;6.57;;
24008;SDS011;12217;50.792;4.372;2023-08-01T07:26:35;14.70;;;6.30;;
24008;SDS011;12217;50.792;4.372;2023-08-01T07:29:00;15.10;;;6.88;;
24008;SDS011;12217;50.792;4.372;2023-08-01T07:31:26;14.98;;;6.57;;
24008;SDS011;12217;50.792;4.372;2023-08-01T07:33:51;14.13;;;7.35;;
24008;SDS011;12217;50.792;4.372;2023-08-01T07:36:17;12.40;;;6.53;;
24008;SDS011;12217;50.792;4.372;2023-08-01T07:38:43;13.45;;;6.68;;
24008;SDS011;12217;50.792;4.372;2023-08-01T07:41:08;17.75;;;7.13;;
24008;SDS011;12217;50.792;4.372;2023-08-01T07:43:34;18.42;;;6.43;;
24008;SDS011;12217;50.792;4.372;2023-08-01T07:45:59;16.88;;;6.47;;
24008;SDS011;12217;50.792;4.372;2023-08-01T07:48:25;15.15;;;6.63;;
24008;SDS011;12217;50.792;4.372;2023-08-01T07:50:51;14.90;;;6.18;;
24008;SDS011;12217;50.792;4.372;2023-08-01T07:53:17;13.80;;;6.00;;
24008;SDS011;12217;50.792;4.372;2023-08-01T07:55:42;13.15;;;5.93;;
24008;SDS011;12217;50.792;4.372;2023-08-01T07:58:08;15.02;;;5.40;;
24008;SDS011;12217;50.792;4.372;2023-08-01T08:00:36;15.95;;;5.38;;
24008;SDS011;12217;50.792;4.372;2023-08-01T08:03:02;14.95;;;6.57;;
24008;SDS011;12217;50.792;4.372;2023-08-01T08:05:28;14.50;;;5.47;;
24008;SDS011;12217;50.792;4.372;2023-08-01T08:07:53;11.23;;;5.07;;
24008;SDS011;12217;50.792;4.372;2023-08-01T08:10:19;11.48;;;5.00;;
24008;SDS011;12217;50.792;4.372;2023-08-01T08:12:45;11.00;;;4.43;;
24008;SDS011;12217;50.792;4.372;2023-08-01T08:15:10;11.43;;;4.55;;
24008;SDS011;12217;50.792;4.372;2023-08-01T08:17:38;12.80;;;4.65;;
24008;SDS011;12217;50.792;4.372;2023-08-01T08:20:04;12.48;;;4.95;;
24008;SDS011;12217;50.792;4.372;2023-08-01T08:22:31;12.23;;;4.78;;
24008;SDS011;12217;50.792;4.372;2023-08-01T08:24:56;11.07;;;4.88;;
24008;SDS011;12217;50.792;4.372;2023-08-01T08:27:22;13.93;;;4.93;;
24008;SDS011;12217;50.792;4.372;2023-08-01T08:29:47;10.18;;;4.75;;
24008;SDS011;12217;50.792;4.372;2023-08-01T08:32:13;13.43;;;4.82;;
24008;SDS011;12217;50.792;4.372;2023-08-01T08:34:39;10.85;;;4.40;;
24008;SDS011;12217;50.792;4.372;2023-08-01T08:37:04;6.93;;;3.85;;
24008;SDS011;12217;50.792;4.372;2023-08-01T08:39:30;9.45;;;4.13;;
24008;SDS011;12217;50.792;4.372;2023-08-01T08:41:56;7.35;;;4.00;;
24008;SDS011;12217;50.792;4.372;2023-08-01T08:44:22;8.25;;;3.85;;
24008;SDS011;12217;50.792;4.372;2023-08-01T08:46:50;9.48;;;3.53;;
24008;SDS011;12217;50.792;4.372;2023-08-01T08:49:17;10.68;;;4.40;;
24008;SDS011;12217;50.792;4.372;2023-08-01T08:51:45;11.88;;;4.05;;
24008;SDS011;12217;50.792;4.372;2023-08-01T08:54:11;10.10;;;3.70;;
24008;SDS011;12217;50.792;4.372;2023-08-01T08:56:39;13.00;;;4.22;;
24008;SDS011;12217;50.792;4.372;2023-08-01T08:59:06;11.77;;;3.92;;
24008;SDS011;12217;50.792;4.372;2023-08-01T09:01:33;9.73;;;4.07;;
24008;SDS011;12217;50.792;4.372;2023-08-01T09:03:59;15.00;;;4.13;;
24008;SDS011;12217;50.792;4.372;2023-08-01T09:06:25;10.10;;;3.97;;
24008;SDS011;12217;50.792;4.372;2023-08-01T09:08:57;7.85;;;3.53;;
24008;SDS011;12217;50.792;4.372;2023-08-01T09:11:49;7.07;;;3.08;;
24008;SDS011;12217;50.792;4.372;2023-08-01T09:14:16;11.50;;;3.40;;
24008;SDS011;12217;50.792;4.372;2023-08-01T09:16:43;7.60;;;3.20;;
24008;SDS011;12217;50.792;4.372;2023-08-01T09:19:09;7.18;;;3.03;;
24008;SDS011;12217;50.792;4.372;2023-08-01T09:21:38;7.45;;;3.03;;
24008;SDS011;12217;50.792;4.372;2023-08-01T09:24:11;7.22;;;3.00;;
24008;SDS011;12217;50.792;4.372;2023-08-01T09:26:41;13.95;;;3.55;;
24008;SDS011;12217;50.792;4.372;2023-08-01T09:29:07;9.25;;;3.40;;
24008;SDS011;12217;50.792;4.372;2023-08-01T09:31:34;8.73;;;2.95;;
24008;SDS011;12217;50.792;4.372;2023-08-01T09:34:04;6.63;;;2.90;;
24008;SDS011;12217;50.792;4.372;2023-08-01T09:36:31;10.13;;;3.33;;
24008;SDS011;12217;50.792;4.372;2023-08-01T09:38:58;7.03;;;3.40;;
24008;SDS011;12217;50.792;4.372;2023-08-01T09:41:25;11.02;;;3.08;;
24008;SDS011;12217;50.792;4.372;2023-08-01T09:43:50;8.93;;;3.22;;
24008;SDS011;12217;50.792;4.372;2023-08-01T09:46:16;6.93;;;3.13;;
24008;SDS011;12217;50.792;4.372;2023-08-01T09:48:41;9.00;;;3.70;;
24008;SDS011;12217;50.792;4.372;2023-08-01T09:53:34;9.80;;;3.78;;
24008;SDS011;12217;50.792;4.372;2023-08-01T09:56:01;6.55;;;3.00;;
24008;SDS011;12217;50.792;4.372;2023-08-01T09:58:29;8.35;;;3.17;;
24008;SDS011;12217;50.792;4.372;2023-08-01T10:00:59;9.30;;;3.47;;
24008;SDS011;12217;50.792;4.372;2023-08-01T10:03:27;8.48;;;3.13;;
24008;SDS011;12217;50.792;4.372;2023-08-01T10:05:54;10.82;;;3.33;;
24008;SDS011;12217;50.792;4.372;2023-08-01T10:08:21;12.52;;;3.60;;
24008;SDS011;12217;50.792;4.372;2023-08-01T10:10:47;9.40;;;3.22;;
24008;SDS011;12217;50.792;4.372;2023-08-01T10:13:13;11.60;;;3.53;;
24008;SDS011;12217;50.792;4.372;2023-08-01T10:15:40;8.70;;;3.28;;
24008;SDS011;12217;50.792;4.372;2023-08-01T10:18:05;6.85;;;2.80;;
24008;SDS011;12217;50.792;4.372;2023-08-01T10:20:32;10.65;;;3.28;;
24008;SDS011;12217;50.792;4.372;2023-08-01T10:23:00;7.25;;;2.85;;
24008;SDS011;12217;50.792;4.372;2023-08-01T10:25:26;6.45;;;2.90;;
24008;SDS011;12217;50.792;4.372;2023-08-01T10:28:01;7.18;;;2.83;;
24008;SDS011;12217;50.792;4.372;2023-08-01T10:30:31;7.32;;;3.08;;
24008;SDS011;12217;50.792;4.372;2023-08-01T10:32:57;7.57;;;2.95;;
24008;SDS011;12217;50.792;4.372;2023-08-01T10:35:36;6.40;;;2.67;;
24008;SDS011;12217;50.792;4.372;2023-08-01T10:38:07;8.15;;;3.28;;
24008;SDS011;12217;50.792;4.372;2023-08-01T10:40:41;8.00;;;3.17;;
24008;SDS011;12217;50.792;4.372;2023-08-01T10:43:20;10.30;;;3.00;;
24008;SDS011;12217;50.792;4.372;2023-08-01T10:45:47;11.25;;;3.42;;
24008;SDS011;12217;50.792;4.372;2023-08-01T10:48:12;8.43;;;2.95;;
24008;SDS011;12217;50.792;4.372;2023-08-01T10:50:39;7.93;;;3.30;;
24008;SDS011;12217;50.792;4.372;2023-08-01T10:53:08;6.65;;;2.33;;
24008;SDS011;12217;50.792;4.372;2023-08-01T10:55:53;8.13;;;2.60;;
24008;SDS011;12217;50.792;4.372;2023-08-01T10:58:18;8.48;;;2.97;;
24008;SDS011;12217;50.792;4.372;2023-08-01T11:00:44;9.40;;;2.30;;
24008;SDS011;12217;50.792;4.372;2023-08-01T11:03:09;9.88;;;2.60;;
24008;SDS011;12217;50.792;4.372;2023-08-01T11:05:35;7.53;;;2.80;;
24008;SDS011;12217;50.792;4.372;2023-08-01T11:08:02;10.90;;;3.28;;
24008;SDS011;12217;50.792;4.372;2023-08-01T11:10:29;8.13;;;2.58;;
24008;SDS011;12217;50.792;4.372;2023-08-01T11:12:56;5.47;;;2.28;;
24008;SDS011;12217;50.792;4.372;2023-08-01T11:15:22;6.88;;;2.58;;
24008;SDS011;12217;50.792;4.372;2023-08-01T11:17:48;6.10;;;2.58;;
24008;SDS011;12217;50.792;4.372;2023-08-01T11:22:51;5.22;;;2.10;;
24008;SDS011;12217;50.792;4.372;2023-08-01T11:25:19;4.47;;;2.38;;
24008;SDS011;12217;50.792;4.372;2023-08-01T11:27:45;4.95;;;1.90;;
24008;SDS011;12217;50.792;4.372;2023-08-01T11:30:11;5.90;;;2.28;;
24008;SDS011;12217;50.792;4.372;2023-08-01T11:32:37;4.88;;;1.95;;
24008;SDS011;12217;50.792;4.372;2023-08-01T11:35:03;5.28;;;2.25;;
24008;SDS011;12217;50.792;4.372;2023-08-01T11:37:29;4.05;;;1.70;;
24008;SDS011;12217;50.792;4.372;2023-08-01T11:39:55;4.78;;;2.10;;
24008;SDS011;12217;50.792;4.372;2023-08-01T11:42:22;5.07;;;2.22;;
24008;SDS011;12217;50.792;4.372;2023-08-01T11:44:48;6.75;;;2.10;;
24008;SDS011;12217;50.792;4.372;2023-08-01T11:47:14;6.18;;;2.20;;
24008;SDS011;12217;50.792;4.372;2023-08-01T11:49:47;4.68;;;1.70;;
24008;SDS011;12217;50.792;4.372;2023-08-01T11:52:24;6.90;;;2.40;;
24008;SDS011;12217;50.792;4.372;2023-08-01T11:54:51;5.53;;;1.90;;
24008;SDS011;12217;50.792;4.372;2023-08-01T11:57:16;9.75;;;2.05;;
24008;SDS011;12217;50.792;4.372;2023-08-01T11:59:49;4.72;;;1.90;;
24008;SDS011;12217;50.792;4.372;2023-08-01T12:02:23;5.63;;;2.05;;
24008;SDS011;12217;50.792;4.372;2023-08-01T12:04:50;8.30;;;2.15;;
24008;SDS011;12217;50.792;4.372;2023-08-01T12:07:17;4.57;;;1.83;;
24008;SDS011;12217;50.792;4.372;2023-08-01T12:09:44;4.82;;;1.67;;
24008;SDS011;12217;50.792;4.372;2023-08-01T12:12:19;7.43;;;2.00;;
24008;SDS011;12217;50.792;4.372;2023-08-01T12:14:45;4.82;;;1.92;;
24008;SDS011;12217;50.792;4.372;2023-08-01T12:17:10;7.80;;;2.20;;
24008;SDS011;12217;50.792;4.372;2023-08-01T12:19:36;6.00;;;1.90;;
24008;SDS011;12217;50.792;4.372;2023-08-01T12:22:01;3.72;;;1.80;;
24008;SDS011;12217;50.792;4.372;2023-08-01T12:24:27;11.35;;;3.00;;
24008;SDS011;12217;50.792;4.372;2023-08-01T12:26:52;6.03;;;2.22;;
24008;SDS011;12217;50.792;4.372;2023-08-01T12:29:18;6.03;;;2.28;;
24008;SDS011;12217;50.792;4.372;2023-08-01T12:31:44;5.00;;;1.90;;
24008;SDS011;12217;50.792;4.372;2023-08-01T12:34:11;4.65;;;1.85;;
24008;SDS011;12217;50.792;4.372;2023-08-01T12:36:36;3.70;;;1.60;;
24008;SDS011;12217;50.792;4.372;2023-08-01T12:39:02;5.57;;;1.38;;
24008;SDS011;12217;50.792;4.372;2023-08-01T12:41:28;4.80;;;1.70;;
24008;SDS011;12217;50.792;4.372;2023-08-01T12:43:54;5.47;;;2.08;;
24008;SDS011;12217;50.792;4.372;2023-08-01T12:46:19;3.55;;;1.65;;
24008;SDS011;12217;50.792;4.372;2023-08-01T12:48:45;6.25;;;1.80;;
24008;SDS011;12217;50.792;4.372;2023-08-01T12:51:11;4.50;;;1.60;;
24008;SDS011;12217;50.792;4.372;2023-08-01T12:53:39;3.33;;;1.58;;
24008;SDS011;12217;50.792;4.372;2023-08-01T12:56:05;5.15;;;1.92;;
24008;SDS011;12217;50.792;4.372;2023-08-01T12:58:30;3.58;;;1.48;;
24008;SDS011;12217;50.792;4.372;2023-08-01T13:00:56;7.85;;;1.70;;
24008;SDS011;12217;50.792;4.372;2023-08-01T13:03:22;4.13;;;1.65;;
24008;SDS011;12217;50.792;4.372;2023-08-01T13:05:48;4.50;;;1.45;;
24008;SDS011;12217;50.792;4.372;2023-08-01T13:08:13;8.13;;;1.75;;
24008;SDS011;12217;50.792;4.372;2023-08-01T13:10:39;3.78;;;1.75;;
24008;SDS011;12217;50.792;4.372;2023-08-01T13:13:05;6.30;;;2.05;;
24008;SDS011;12217;50.792;4.372;2023-08-01T13:15:31;4.95;;;1.65;;
24008;SDS011;12217;50.792;4.372;2023-08-01T13:17:56;7.13;;;1.90;;
24008;SDS011;12217;50.792;4.372;2023-08-01T13:20:22;5.35;;;2.00;;
24008;SDS011;12217;50.792;4.372;2023-08-01T13:22:49;4.20;;;1.70;;
24008;SDS011;12217;50.792;4.372;2023-08-01T13:25:16;5.13;;;1.70;;
24008;SDS011;12217;50.792;4.372;2023-08-01T13:27:42;6.60;;;2.15;;
24008;SDS011;12217;50.792;4.372;2023-08-01T13:30:08;5.28;;;1.95;;
24008;SDS011;12217;50.792;4.372;2023-08-01T13:32:34;4.63;;;2.17;;
24008;SDS011;12217;50.792;4.372;2023-08-01T13:35:00;6.05;;;2.08;;
24008;SDS011;12217;50.792;4.372;2023-08-01T13:37:26;7.05;;;2.22;;
24008;SDS011;12217;50.792;4.372;2023-08-01T13:39:54;6.50;;;2.00;;
24008;SDS011;12217;50.792;4.372;2023-08-01T13:42:19;5.75;;;2.10;;
24008;SDS011;12217;50.792;4.372;2023-08-01T13:44:45;11.80;;;2.55;;
24008;SDS011;12217;50.792;4.372;2023-08-01T13:47:10;6.72;;;2.35;;
24008;SDS011;12217;50.792;4.372;2023-08-01T13:49:36;8.07;;;2.08;;
24008;SDS011;12217;50.792;4.372;2023-08-01T13:52:03;8.60;;;2.60;;
24008;SDS011;12217;50.792;4.372;2023-08-01T13:54:29;5.32;;;2.17;;
24008;SDS011;12217;50.792;4.372;2023-08-01T13:56:55;7.95;;;2.42;;
24008;SDS011;12217;50.792;4.372;2023-08-01T13:59:20;8.02;;;2.28;;
24008;SDS011;12217;50.792;4.372;2023-08-01T14:01:46;8.18;;;2.17;;
24008;SDS011;12217;50.792;4.372;2023-08-01T14:04:12;5.65;;;1.70;;
24008;SDS011;12217;50.792;4.372;2023-08-01T14:06:39;5.05;;;1.80;;
24008;SDS011;12217;50.792;4.372;2023-08-01T14:09:06;6.47;;;1.80;;
24008;SDS011;12217;50.792;4.372;2023-08-01T14:11:33;2.38;;;1.60;;
24008;SDS011;12217;50.792;4.372;2023-08-01T14:13:59;3.80;;;1.48;;
24008;SDS011;12217;50.792;4.372;2023-08-01T14:16:25;2.08;;;1.30;;
24008;SDS011;12217;50.792;4.372;2023-08-01T14:18:50;3.88;;;1.50;;
24008;SDS011;12217;50.792;4.372;2023-08-01T14:21:16;3.30;;;1.20;;
24008;SDS011;12217;50.792;4.372;2023-08-01T14:23:41;5.85;;;1.63;;
24008;SDS011;12217;50.792;4.372;2023-08-01T14:26:08;4.93;;;1.50;;
24008;SDS011;12217;50.792;4.372;2023-08-01T14:28:33;2.78;;;1.33;;
24008;SDS011;12217;50.792;4.372;2023-08-01T14:31:02;5.80;;;1.80;;
24008;SDS011;12217;50.792;4.372;2023-08-01T14:33:29;6.75;;;2.03;;
24008;SDS011;12217;50.792;4.372;2023-08-01T14:35:55;5.65;;;1.65;;
24008;SDS011;12217;50.792;4.372;2023-08-01T14:38:21;7.68;;;2.10;;
24008;SDS011;12217;50.792;4.372;2023-08-01T14:40:47;6.78;;;1.85;;